Time;durP1;ratioP1;P1;durP2;ratioP2;P2;SDS_P1;SDS_P2;PMS_P1;PMS_P2;Temp;Humidity;BMP_temperature;BMP_pressure;BME280_temperature;BME280_humidity;BME280_pressure;Samples;Min_cycle;Max_cycle;Signal;HPM_P1;HPM_P2
2023/08/04 00:00:59;;;;;;;4.45;2.00;;;;;;;26.36;51.52;99610.41;5092751;28;20552;-72
2023/08/04 00:03:30;;;;;;;4.35;1.90;;;;;;;26.36;51.88;99604.94;5093013;28;20135;-72
2023/08/04 00:05:59;;;;;;;3.53;2.13;;;;;;;26.35;51.81;99616.09;5093091;28;20048;-73
2023/08/04 00:08:27;;;;;;;4.35;1.92;;;;;;;26.34;51.70;99622.56;5091136;28;20428;-73
2023/08/04 00:10:57;;;;;;;3.85;2.05;;;;;;;26.33;51.57;99615.44;5092145;28;20048;-72
2023/08/04 00:13:26;;;;;;;3.75;1.80;;;;;;;26.31;52.03;99598.41;5092542;28;20071;-72
2023/08/04 00:15:54;;;;;;;3.42;1.92;;;;;;;26.29;51.63;99587.69;5092522;28;20546;-73
2023/08/04 00:18:32;;;;;;;3.33;1.80;;;;;;;26.29;51.64;99573.16;5092400;28;20476;-72
2023/08/04 00:21:00;;;;;;;5.38;2.03;;;;;;;26.28;51.76;99580.53;5092650;28;20072;-72
2023/08/04 00:23:29;;;;;;;3.95;1.80;;;;;;;26.28;52.12;99590.63;5092388;28;20056;-72
2023/08/04 00:25:58;;;;;;;4.30;2.00;;;;;;;26.27;52.25;99628.06;5092383;28;20093;-72
2023/08/04 00:28:27;;;;;;;4.45;1.98;;;;;;;26.25;52.19;99715.75;5092677;28;20136;-72
2023/08/04 00:30:55;;;;;;;3.67;1.70;;;;;;;26.25;52.24;99773.16;5091417;28;20101;-72
2023/08/04 00:33:24;;;;;;;3.75;1.80;;;;;;;26.23;52.47;99753.34;5092550;28;20044;-72
2023/08/04 00:35:56;;;;;;;3.50;1.90;;;;;;;26.21;52.18;99691.75;5092215;28;20093;-72
2023/08/04 00:38:24;;;;;;;4.40;2.00;;;;;;;26.20;52.62;99750.19;5092150;28;20134;-71
2023/08/04 00:40:53;;;;;;;4.55;2.00;;;;;;;26.17;52.48;99746.00;5092268;28;20123;-71
2023/08/04 00:43:22;;;;;;;3.95;1.80;;;;;;;26.17;52.46;99715.94;5092169;28;20047;-71
2023/08/04 00:45:56;;;;;;;3.83;1.90;;;;;;;26.15;52.22;99690.69;5092067;28;20412;-72
2023/08/04 00:48:24;;;;;;;3.67;1.65;;;;;;;26.14;52.26;99689.00;5092146;28;20408;-72
2023/08/04 00:50:53;;;;;;;3.17;1.73;;;;;;;26.14;52.26;99710.00;5091873;28;20051;-73
2023/08/04 00:53:24;;;;;;;2.95;1.60;;;;;;;26.13;52.43;99700.97;5092261;28;20139;-72
2023/08/04 00:55:53;;;;;;;3.97;2.03;;;;;;;26.13;52.32;99681.84;5092015;28;20052;-73
2023/08/04 00:58:23;;;;;;;2.95;1.70;;;;;;;26.11;52.34;99683.94;5091916;28;20079;-73
2023/08/04 01:00:51;;;;;;;3.45;1.83;;;;;;;26.12;52.76;99680.16;5091925;28;20071;-73
2023/08/04 01:03:20;;;;;;;3.80;1.70;;;;;;;26.10;52.77;99668.59;5091880;28;20386;-72
2023/08/04 01:05:57;;;;;;;3.20;1.70;;;;;;;26.09;52.64;99642.31;5091827;28;20117;-72
2023/08/04 01:08:33;;;;;;;3.35;2.00;;;;;;;26.09;52.29;99639.59;5091710;28;20059;-73
2023/08/04 01:11:10;;;;;;;4.55;2.08;;;;;;;26.08;52.65;99613.31;5092078;28;20040;-72
2023/08/04 01:13:41;;;;;;;4.20;1.90;;;;;;;26.08;52.85;99628.88;5091743;28;20047;-70
2023/08/04 01:16:09;;;;;;;2.35;1.55;;;;;;;26.07;52.75;99670.91;5091547;28;20134;-71
2023/08/04 01:18:36;;;;;;;4.35;1.80;;;;;;;26.07;52.63;99676.38;5091846;28;20052;-72
2023/08/04 01:21:06;;;;;;;3.30;1.80;;;;;;;26.05;52.87;99673.84;5091541;28;20135;-71
2023/08/04 01:23:35;;;;;;;3.83;1.90;;;;;;;26.04;52.76;99672.16;5091708;28;20048;-73
2023/08/04 01:26:10;;;;;;;3.80;1.73;;;;;;;26.03;52.51;99662.28;5090716;28;20162;-73
2023/08/04 01:28:42;;;;;;;4.20;2.00;;;;;;;26.03;52.90;99681.41;5091436;28;20098;-71
2023/08/04 01:31:11;;;;;;;3.08;1.73;;;;;;;26.03;52.89;99681.41;5091559;28;20093;-70
2023/08/04 01:33:40;;;;;;;3.30;1.90;;;;;;;25.99;52.99;99663.75;5091605;28;20408;-70
2023/08/04 01:36:10;;;;;;;4.57;1.95;;;;;;;26.01;53.08;99650.72;5091653;28;20047;-70
2023/08/04 01:38:38;;;;;;;3.90;1.90;;;;;;;25.98;53.06;99667.53;5091591;28;20044;-71
2023/08/04 01:41:07;;;;;;;3.25;1.70;;;;;;;26.00;53.23;99692.75;5091411;28;20079;-72
2023/08/04 01:43:35;;;;;;;3.60;1.80;;;;;;;25.99;52.77;99702.00;5091617;28;20040;-71
2023/08/04 01:46:03;;;;;;;3.53;1.73;;;;;;;25.98;53.27;99702.22;5091469;28;20079;-71
2023/08/04 01:48:33;;;;;;;4.32;1.90;;;;;;;25.96;52.86;99713.31;5091415;28;20599;-71
2023/08/04 01:51:01;;;;;;;3.20;1.83;;;;;;;25.94;53.31;99727.19;5091195;28;20135;-72
2023/08/04 01:53:31;;;;;;;3.05;1.70;;;;;;;25.95;53.21;99728.03;5091302;28;20055;-72
2023/08/04 01:55:59;;;;;;;3.50;1.90;;;;;;;25.94;52.88;99699.03;5091050;28;20048;-72
2023/08/04 01:58:28;;;;;;;3.50;1.90;;;;;;;25.93;53.23;99694.59;5091364;28;20050;-71
2023/08/04 02:00:59;;;;;;;3.47;1.70;;;;;;;25.93;53.25;99694.59;5091281;28;20484;-70
2023/08/04 02:03:32;;;;;;;3.65;1.90;;;;;;;25.91;53.04;99685.78;5091153;28;20048;-73
2023/08/04 02:06:01;;;;;;;3.70;1.90;;;;;;;25.89;53.10;99682.41;5091060;28;20052;-73
2023/08/04 02:08:31;;;;;;;4.25;1.95;;;;;;;25.90;53.17;99686.84;5091229;28;20055;-73
2023/08/04 02:10:59;;;;;;;4.05;2.05;;;;;;;25.87;53.38;99681.78;5091598;28;20075;-74
2023/08/04 02:13:27;;;;;;;4.10;1.73;;;;;;;25.87;52.95;99679.06;5091235;28;20079;-74
2023/08/04 02:15:55;;;;;;;4.28;1.90;;;;;;;25.87;53.17;99660.78;5091290;28;20431;-75
2023/08/04 02:18:24;;;;;;;3.65;1.80;;;;;;;25.87;53.41;99651.75;5091496;28;20040;-75
2023/08/04 02:20:52;;;;;;;3.55;1.60;;;;;;;25.86;52.96;99636.38;5091022;28;20097;-74
2023/08/04 02:23:20;;;;;;;3.55;1.65;;;;;;;25.85;53.27;99631.94;5091014;28;20059;-74
2023/08/04 02:25:51;;;;;;;3.83;1.77;;;;;;;25.84;53.49;99644.78;5091099;28;20048;-73
2023/08/04 02:28:20;;;;;;;2.72;1.55;;;;;;;25.84;53.64;99657.59;5091229;28;20059;-73
2023/08/04 02:30:48;;;;;;;4.20;1.83;;;;;;;25.82;53.19;99659.69;5091070;28;20048;-74
2023/08/04 02:33:19;;;;;;;4.25;1.75;;;;;;;25.82;53.37;99671.47;5091518;28;20052;-73
2023/08/04 02:35:47;;;;;;;2.90;1.65;;;;;;;25.82;53.23;99670.63;5094444;28;20048;-74
2023/08/04 02:38:15;;;;;;;3.45;1.80;;;;;;;25.82;53.51;99646.03;5094651;28;20118;-74
2023/08/04 02:40:44;;;;;;;3.92;1.80;;;;;;;25.81;53.04;99658.00;5094427;28;20048;-74
2023/08/04 02:43:13;;;;;;;3.10;1.60;;;;;;;25.79;53.16;99674.63;5094332;28;20513;-73
2023/08/04 02:45:48;;;;;;;3.17;1.60;;;;;;;25.79;53.64;99662.84;5094295;28;20052;-75
2023/08/04 02:48:16;;;;;;;3.70;1.70;;;;;;;25.78;53.29;99663.91;5094345;28;20078;-73
2023/08/04 02:50:45;;;;;;;3.00;1.70;;;;;;;25.77;53.29;99665.78;5094123;28;20405;-73
2023/08/04 02:53:13;;;;;;;2.88;1.60;;;;;;;25.77;53.45;99654.00;5094490;28;20437;-74
2023/08/04 02:55:41;;;;;;;2.60;1.50;;;;;;;25.76;53.80;99653.16;5094198;28;20048;-74
2023/08/04 02:58:09;;;;;;;3.25;1.70;;;;;;;25.74;53.40;99648.94;5094149;28;20455;-73
2023/08/04 03:00:39;;;;;;;3.17;1.73;;;;;;;25.75;53.63;99656.09;5093950;28;20082;-72
2023/08/04 03:03:07;;;;;;;2.55;1.60;;;;;;;25.74;53.54;99668.06;5093988;28;20237;-74
2023/08/04 03:05:36;;;;;;;4.05;1.88;;;;;;;25.74;53.67;99706.31;5093980;28;20052;-72
2023/08/04 03:08:04;;;;;;;2.92;1.65;;;;;;;25.74;53.78;99742.66;5093910;28;21106;-74
2023/08/04 03:10:32;;;;;;;3.15;1.65;;;;;;;25.72;53.58;99754.84;5094198;28;20040;-74
2023/08/04 03:13:00;;;;;;;2.97;1.60;;;;;;;25.69;53.63;99762.38;5093813;28;20108;-73
2023/08/04 03:15:29;;;;;;;3.33;1.77;;;;;;;25.67;53.97;99749.94;5093558;28;20074;-72
2023/08/04 03:17:58;;;;;;;3.67;1.63;;;;;;;25.65;53.91;99731.03;5093554;28;20484;-72
2023/08/04 03:20:27;;;;;;;3.75;1.85;;;;;;;25.65;53.64;99731.03;5093478;28;20056;-73
2023/08/04 03:22:55;;;;;;;2.88;1.75;;;;;;;25.65;53.75;99720.09;5093582;28;20048;-73
2023/08/04 03:25:23;;;;;;;2.58;1.60;;;;;;;25.64;53.82;99712.09;5093338;28;20068;-72
2023/08/04 03:27:52;;;;;;;3.85;1.67;;;;;;;25.64;53.59;99703.91;5092103;28;20059;-72
2023/08/04 03:30:20;;;;;;;3.15;1.75;;;;;;;25.62;53.97;99706.84;5093651;28;20139;-72
2023/08/04 03:32:48;;;;;;;3.17;1.40;;;;;;;25.62;53.92;99698.66;5093669;28;20076;-70
2023/08/04 03:35:18;;;;;;;3.60;1.70;;;;;;;25.61;54.21;99698.88;5093422;28;20048;-73
2023/08/04 03:37:47;;;;;;;3.22;1.80;;;;;;;25.60;53.72;99706.22;5093356;28;20052;-73
2023/08/04 03:40:15;;;;;;;2.60;1.50;;;;;;;25.59;53.72;99696.34;5093325;28;20501;-72
2023/08/04 03:42:44;;;;;;;3.22;1.88;;;;;;;25.60;54.13;99697.19;5093203;28;20447;-72
2023/08/04 03:45:15;;;;;;;3.10;1.65;;;;;;;25.59;54.27;99696.34;5093364;28;20047;-73
2023/08/04 03:47:46;;;;;;;3.38;1.80;;;;;;;25.58;54.01;99696.56;5093124;28;20135;-71
2023/08/04 03:50:14;;;;;;;3.22;1.65;;;;;;;25.58;53.89;99702.84;5093268;28;20076;-72
2023/08/04 03:52:46;;;;;;;3.88;1.55;;;;;;;25.57;53.66;99703.88;5093105;28;20047;-72
2023/08/04 03:55:14;;;;;;;2.97;1.63;;;;;;;25.55;54.05;99696.94;5092913;28;20146;-72
2023/08/04 03:57:42;;;;;;;3.17;1.60;;;;;;;25.56;54.25;99701.34;5093107;28;20048;-73
2023/08/04 04:00:11;;;;;;;3.50;1.83;;;;;;;25.54;54.03;99704.28;5092994;28;20048;-72
2023/08/04 04:02:40;;;;;;;2.47;1.45;;;;;;;25.53;54.37;99708.06;5093231;28;20044;-72
2023/08/04 04:05:08;;;;;;;3.30;1.65;;;;;;;25.52;53.89;99717.31;5092749;28;20044;-70
2023/08/04 04:07:37;;;;;;;3.83;1.70;;;;;;;25.53;54.26;99745.44;5092289;28;20060;-72
2023/08/04 04:10:08;;;;;;;3.67;1.75;;;;;;;25.50;54.18;99745.88;5092807;28;20056;-71
2023/08/04 04:12:36;;;;;;;2.70;1.58;;;;;;;25.51;54.21;99748.38;5092945;28;20141;-72
2023/08/04 04:15:06;;;;;;;4.13;1.70;;;;;;;25.50;54.11;99743.97;5091600;28;20048;-71
2023/08/04 04:17:38;;;;;;;3.40;1.50;;;;;;;25.48;54.31;99772.50;5092491;28;20055;-73
2023/08/04 04:20:08;;;;;;;2.95;1.40;;;;;;;25.49;54.05;99763.28;5092399;28;20048;-72
2023/08/04 04:22:36;;;;;;;3.10;1.50;;;;;;;25.46;54.23;99734.47;5092637;28;20058;-72
2023/08/04 04:25:05;;;;;;;3.25;1.70;;;;;;;25.46;54.59;99750.88;5092615;28;20067;-71
2023/08/04 04:27:35;;;;;;;3.00;1.63;;;;;;;25.46;54.30;99764.50;5090894;28;20087;-70
2023/08/04 04:30:03;;;;;;;2.72;1.40;;;;;;;25.46;54.37;99783.63;5092339;28;20063;-71
2023/08/04 04:32:34;;;;;;;4.40;1.50;;;;;;;25.45;54.51;99792.88;5092330;28;20062;-72
2023/08/04 04:35:06;;;;;;;3.28;1.60;;;;;;;25.45;54.37;99772.91;5092229;28;20084;-73
2023/08/04 04:37:34;;;;;;;3.50;1.60;;;;;;;25.43;54.36;99740.34;5092465;28;20067;-73
2023/08/04 04:40:03;;;;;;;3.00;1.58;;;;;;;25.40;54.52;99732.56;5092351;28;20469;-73
2023/08/04 04:42:33;;;;;;;3.08;1.50;;;;;;;25.43;54.20;99714.94;5092023;28;20080;-72
2023/08/04 04:45:02;;;;;;;2.88;1.50;;;;;;;25.43;54.44;99709.47;5092050;28;20047;-72
2023/08/04 04:47:31;;;;;;;3.60;1.58;;;;;;;25.41;54.82;99698.78;5091876;28;20467;-72
2023/08/04 04:49:59;;;;;;;3.70;1.60;;;;;;;25.43;54.53;99707.59;5092049;28;20044;-72
2023/08/04 04:52:32;;;;;;;2.72;1.58;;;;;;;25.42;54.66;99710.53;5092118;28;20048;-71
2023/08/04 04:55:01;;;;;;;3.53;1.42;;;;;;;25.43;54.62;99701.28;5091576;28;20094;-72
2023/08/04 04:57:30;;;;;;;2.50;1.20;;;;;;;25.32;54.68;99694.50;5091869;28;20043;-72
2023/08/04 04:59:58;;;;;;;3.22;1.52;;;;;;;25.42;54.41;99702.34;5091705;28;20407;-72
2023/08/04 05:02:27;;;;;;;3.13;1.75;;;;;;;25.41;54.86;99698.78;5092012;28;20056;-72
2023/08/04 05:04:56;;;;;;;4.22;1.65;;;;;;;25.40;54.75;99697.94;5091914;28;20109;-70
2023/08/04 05:07:24;;;;;;;2.80;1.50;;;;;;;25.41;54.68;99685.13;5091580;28;20512;-71
2023/08/04 05:09:52;;;;;;;2.45;1.40;;;;;;;25.40;54.86;99686.16;5091881;28;20052;-72
2023/08/04 05:12:21;;;;;;;2.28;1.27;;;;;;;25.41;54.76;99687.84;5091495;28;20048;-71
2023/08/04 05:14:50;;;;;;;3.78;1.48;;;;;;;25.40;54.93;99680.72;5091798;28;20119;-72
2023/08/04 05:17:21;;;;;;;4.05;1.90;;;;;;;25.40;54.82;99691.63;5091709;28;20181;-70
2023/08/04 05:19:50;;;;;;;2.45;1.40;;;;;;;25.40;54.63;99686.16;5091613;28;20044;-70
2023/08/04 05:22:19;;;;;;;3.17;1.60;;;;;;;25.40;54.79;99695.19;5091663;28;20060;-72
2023/08/04 05:24:47;;;;;;;2.85;1.48;;;;;;;25.40;54.93;99692.47;5091489;28;20055;-72
2023/08/04 05:27:28;;;;;;;2.97;1.70;;;;;;;25.39;54.89;99689.94;5091344;28;20047;-71
2023/08/04 05:29:56;;;;;;;2.70;1.48;;;;;;;25.39;54.95;99698.97;5091545;28;20048;-71
2023/08/04 05:32:25;;;;;;;2.38;1.40;;;;;;;25.39;55.22;99695.41;5091472;28;20580;-71
2023/08/04 05:34:55;;;;;;;3.38;1.88;;;;;;;25.40;54.97;99688.91;5091361;28;20044;-71
2023/08/04 05:37:23;;;;;;;2.47;1.45;;;;;;;25.40;55.10;99694.34;5091429;28;20052;-70
2023/08/04 05:39:54;;;;;;;4.05;1.48;;;;;;;25.40;55.22;99697.09;5091365;28;20044;-70
2023/08/04 05:42:22;;;;;;;3.45;1.58;;;;;;;25.39;55.35;99687.22;5090125;28;20052;-70
2023/08/04 05:44:50;;;;;;;3.35;1.70;;;;;;;25.39;55.37;99682.59;5091214;28;20467;-71
2023/08/04 05:47:20;;;;;;;3.00;1.50;;;;;;;25.39;55.21;99673.56;5090400;28;20051;-71
2023/08/04 05:49:52;;;;;;;3.22;1.85;;;;;;;25.39;55.37;99674.41;5090980;28;20044;-70
2023/08/04 05:52:21;;;;;;;3.33;1.70;;;;;;;25.39;55.39;99679.03;5090279;28;20129;-70
2023/08/04 05:54:53;;;;;;;3.05;1.55;;;;;;;25.37;55.59;99672.91;5090615;28;20044;-71
2023/08/04 05:57:21;;;;;;;4.00;1.63;;;;;;;25.39;55.21;99670.84;5091402;28;20044;-71
2023/08/04 05:59:49;;;;;;;3.22;1.70;;;;;;;25.39;55.65;99679.03;5091263;28;20070;-70
2023/08/04 06:02:18;;;;;;;2.80;1.50;;;;;;;25.37;55.73;99679.19;5090020;28;20054;-70
2023/08/04 06:04:46;;;;;;;4.15;1.50;;;;;;;25.38;55.30;99688.22;5091340;28;20040;-70
2023/08/04 06:07:15;;;;;;;2.42;1.40;;;;;;;25.38;55.22;99682.78;5090150;28;20052;-70
2023/08/04 06:09:44;;;;;;;2.50;1.35;;;;;;;25.38;55.44;99680.91;5095454;28;20052;-70
2023/08/04 06:12:13;;;;;;;3.22;1.73;;;;;;;25.37;55.67;99671.00;5095120;28;20055;-71
2023/08/04 06:14:45;;;;;;;2.85;1.55;;;;;;;25.38;55.70;99677.31;5095100;28;20381;-70
2023/08/04 06:17:13;;;;;;;2.80;1.55;;;;;;;25.39;55.72;99668.09;5094867;28;20052;-70
2023/08/04 06:19:43;;;;;;;3.67;1.63;;;;;;;25.39;55.57;99668.09;5094917;28;20055;-70
2023/08/04 06:22:13;;;;;;;3.28;1.70;;;;;;;25.39;55.50;99670.84;5095031;28;20135;-70
2023/08/04 06:24:41;;;;;;;3.42;1.67;;;;;;;25.40;55.73;99675.25;5094876;28;20043;-70
2023/08/04 06:27:11;;;;;;;2.85;1.60;;;;;;;25.40;55.74;99678.81;5094840;28;20121;-70
2023/08/04 06:29:39;;;;;;;3.28;1.65;;;;;;;25.40;55.54;99677.97;5094891;28;20048;-70
2023/08/04 06:32:08;;;;;;;3.35;1.58;;;;;;;25.40;55.84;99677.97;5094626;28;20048;-70
2023/08/04 06:34:39;;;;;;;3.05;1.70;;;;;;;25.40;55.85;99681.56;5094794;28;20068;-70
2023/08/04 06:37:07;;;;;;;3.15;1.52;;;;;;;25.40;55.92;99687.00;5094417;28;20044;-70
2023/08/04 06:39:35;;;;;;;2.75;1.65;;;;;;;25.39;55.60;99676.28;5094753;28;20056;-70
2023/08/04 06:42:04;;;;;;;2.88;1.50;;;;;;;25.40;55.58;99680.72;5094358;28;20051;-70
2023/08/04 06:44:36;;;;;;;3.30;1.58;;;;;;;25.39;55.52;99692.69;5094193;28;20145;-68
2023/08/04 06:47:06;;;;;;;2.60;1.48;;;;;;;25.41;55.83;99696.03;5094428;28;20438;-68
2023/08/04 06:49:35;;;;;;;2.90;1.63;;;;;;;25.40;56.00;99683.44;5094085;28;20464;-68
2023/08/04 06:52:03;;;;;;;2.80;1.60;;;;;;;25.40;55.77;99681.56;5094367;28;20044;-68
2023/08/04 06:54:31;;;;;;;3.28;1.83;;;;;;;25.41;55.82;99690.59;5094171;28;20052;-68
2023/08/04 06:57:00;;;;;;;4.05;1.88;;;;;;;25.41;56.08;99687.84;5093899;28;20044;-68
2023/08/04 06:59:28;;;;;;;2.75;1.48;;;;;;;25.42;55.90;99692.25;5094291;28;20044;-68
2023/08/04 07:01:58;;;;;;;3.80;1.70;;;;;;;25.44;55.76;99695.63;5094028;28;20489;-68
2023/08/04 07:04:26;;;;;;;2.75;1.80;;;;;;;25.43;56.21;99707.59;5093759;28;20089;-68
2023/08/04 07:06:55;;;;;;;3.80;1.55;;;;;;;25.43;55.81;99707.59;5093853;28;20048;-69
2023/08/04 07:09:23;;;;;;;3.15;1.50;;;;;;;25.46;55.65;99712.63;5093213;28;20139;-68
2023/08/04 07:11:52;;;;;;;3.63;1.50;;;;;;;25.45;55.82;99705.50;5093435;28;20542;-70
2023/08/04 07:14:21;;;;;;;6.47;2.35;;;;;;;25.44;56.20;99708.44;5093729;28;20048;-74
2023/08/04 07:16:49;;;;;;;6.78;2.20;;;;;;;25.45;56.06;99702.78;5093730;28;20140;-70
2023/08/04 07:19:21;;;;;;;5.07;2.00;;;;;;;25.46;56.07;99704.44;5093085;28;20044;-69
2023/08/04 07:21:49;;;;;;;6.32;2.30;;;;;;;25.46;56.28;99712.63;5092440;28;20457;-71
2023/08/04 07:24:19;;;;;;;5.18;2.08;;;;;;;25.48;55.94;99715.16;5095705;28;20040;-71
2023/08/04 07:26:49;;;;;;;4.47;2.30;;;;;;;25.47;56.39;99714.31;5093396;28;20090;-70
2023/08/04 07:29:18;;;;;;;5.88;2.10;;;;;;;25.47;56.40;99714.31;5093701;28;20135;-70
2023/08/04 07:31:46;;;;;;;5.20;1.98;;;;;;;25.50;55.98;99713.94;5093672;28;20172;-70
2023/08/04 07:34:14;;;;;;;5.82;2.15;;;;;;;25.50;56.25;99711.22;5093352;28;20104;-70
2023/08/04 07:36:44;;;;;;;5.43;2.33;;;;;;;25.52;56.16;99719.19;5093090;28;20048;-70
2023/08/04 07:39:12;;;;;;;4.65;2.13;;;;;;;25.51;56.03;99710.16;5093501;28;20046;-70
2023/08/04 07:41:41;;;;;;;5.95;2.30;;;;;;;25.52;55.92;99700.09;5091996;28;20044;-70
2023/08/04 07:44:10;;;;;;;5.18;1.95;;;;;;;25.53;55.98;99702.59;5093158;28;20532;-70
2023/08/04 07:46:38;;;;;;;5.38;1.92;;;;;;;25.54;56.06;99712.47;5093147;28;20059;-70
2023/08/04 07:49:06;;;;;;;4.95;1.98;;;;;;;25.54;55.87;99720.66;5092977;28;20071;-70
2023/08/04 07:51:34;;;;;;;4.88;2.28;;;;;;;25.54;56.22;99731.59;5093152;28;20101;-70
2023/08/04 07:54:04;;;;;;;6.80;2.30;;;;;;;25.54;56.13;99731.59;5093038;28;20416;-70
2023/08/04 07:56:33;;;;;;;5.22;2.20;;;;;;;25.55;55.81;99727.81;5092891;28;20071;-69
2023/08/04 07:59:02;;;;;;;5.70;2.10;;;;;;;25.56;56.12;99740.41;5092778;28;20044;-69
2023/08/04 08:01:30;;;;;;;4.07;2.10;;;;;;;25.57;56.15;99739.38;5092775;28;20076;-70
2023/08/04 08:03:58;;;;;;;5.55;2.13;;;;;;;25.56;55.66;99736.84;5092716;28;20047;-70
2023/08/04 08:06:26;;;;;;;3.63;2.00;;;;;;;25.59;56.19;99736.47;5092782;28;20171;-69
2023/08/04 08:08:58;;;;;;;5.43;2.20;;;;;;;25.58;55.86;99729.31;5092450;28;20052;-69
2023/08/04 08:11:27;;;;;;;4.90;2.40;;;;;;;25.58;56.18;99710.22;5092515;28;20044;-70
2023/08/04 08:13:56;;;;;;;4.10;2.17;;;;;;;25.60;56.26;99724.50;5092428;28;20056;-70
2023/08/04 08:16:24;;;;;;;4.82;2.17;;;;;;;25.60;55.93;99725.34;5092317;28;20055;-69
2023/08/04 08:18:52;;;;;;;5.05;2.10;;;;;;;25.58;56.00;99705.59;5092348;28;20044;-69
2023/08/04 08:21:21;;;;;;;6.07;2.30;;;;;;;25.61;56.13;99715.25;5092449;28;20044;-70
2023/08/04 08:23:49;;;;;;;4.82;2.05;;;;;;;25.62;55.91;99712.31;5092477;28;20186;-70
2023/08/04 08:26:17;;;;;;;4.47;2.00;;;;;;;25.62;56.07;99712.31;5092525;28;20048;-69
2023/08/04 08:28:46;;;;;;;4.10;1.90;;;;;;;25.63;55.97;99714.00;5092138;28;20481;-70
2023/08/04 08:31:14;;;;;;;3.97;1.92;;;;;;;25.64;56.13;99715.69;5091491;28;20048;-70
2023/08/04 08:33:43;;;;;;;4.30;2.03;;;;;;;25.65;55.88;99716.53;5092405;28;20048;-70
2023/08/04 08:36:11;;;;;;;3.40;1.50;;;;;;;25.65;56.38;99717.38;5092473;28;20082;-70
2023/08/04 08:38:39;;;;;;;4.07;1.92;;;;;;;25.67;56.18;99712.56;5092023;28;20477;-70
2023/08/04 08:41:11;;;;;;;7.50;2.25;;;;;;;25.68;55.96;99711.50;5092391;28;20055;-70
2023/08/04 08:43:39;;;;;;;3.90;2.05;;;;;;;25.67;56.07;99709.84;5091869;28;20044;-70
2023/08/04 08:46:09;;;;;;;4.30;1.95;;;;;;;25.69;55.84;99713.19;5092013;28;20056;-70
2023/08/04 08:48:39;;;;;;;4.50;2.00;;;;;;;25.69;56.09;99702.28;5091716;28;20134;-70
2023/08/04 08:51:09;;;;;;;5.43;2.47;;;;;;;25.71;56.10;99710.28;5091935;28;20048;-70
2023/08/04 08:53:38;;;;;;;4.15;1.98;;;;;;;25.72;56.31;99700.22;5124517;27;20471;-70
2023/08/04 08:56:09;;;;;;;3.92;2.00;;;;;;;25.72;56.23;99702.94;5091574;28;20055;-70
2023/08/04 08:58:39;;;;;;;3.40;2.00;;;;;;;25.73;56.20;99701.88;5092074;28;20139;-70
2023/08/04 09:01:12;;;;;;;4.20;1.90;;;;;;;25.73;56.38;99702.72;5091791;28;20545;-70
2023/08/04 09:03:41;;;;;;;4.65;2.20;;;;;;;25.74;56.30;99704.41;5091970;28;20044;-70
2023/08/04 09:06:09;;;;;;;4.78;2.08;;;;;;;25.75;56.49;99706.09;5091725;28;20048;-70
2023/08/04 09:08:37;;;;;;;4.68;2.15;;;;;;;25.75;56.48;99703.38;5091690;28;20048;-70
2023/08/04 09:11:06;;;;;;;4.75;2.50;;;;;;;25.77;56.24;99705.88;5091808;28;20091;-70
2023/08/04 09:13:40;;;;;;;4.57;1.88;;;;;;;25.78;56.43;99713.06;5091731;28;20135;-71
2023/08/04 09:16:12;;;;;;;3.72;1.98;;;;;;;25.78;56.47;99732.19;5091743;28;20051;-70
2023/08/04 09:18:41;;;;;;;5.87;2.10;;;;;;;25.79;56.40;99725.66;5091567;28;20056;-70
2023/08/04 09:21:13;;;;;;;3.33;2.08;;;;;;;25.80;56.13;99725.47;5091603;28;20090;-70
2023/08/04 09:23:44;;;;;;;4.05;2.03;;;;;;;25.81;56.30;99723.56;5091537;28;20061;-70
2023/08/04 09:26:12;;;;;;;4.88;2.15;;;;;;;25.81;56.18;99721.69;5091071;28;20143;-71
2023/08/04 09:28:40;;;;;;;4.18;2.20;;;;;;;25.82;56.22;99717.91;5091509;28;20055;-71
2023/08/04 09:31:11;;;;;;;4.82;2.13;;;;;;;25.82;56.37;99717.91;5091552;28;20139;-70
2023/08/04 09:33:41;;;;;;;3.50;1.92;;;;;;;25.84;56.47;99712.22;5091295;28;20052;-70
2023/08/04 09:36:12;;;;;;;2.97;1.90;;;;;;;25.85;56.11;99711.19;5091751;28;20044;-71
2023/08/04 09:38:41;;;;;;;4.97;2.10;;;;;;;25.86;56.22;99710.13;5091805;28;20128;-71
2023/08/04 09:41:13;;;;;;;4.53;2.08;;;;;;;25.86;56.13;99710.97;5091708;28;20119;-70
2023/08/04 09:43:45;;;;;;;3.95;1.85;;;;;;;25.86;56.53;99702.78;5095579;28;20048;-70
2023/08/04 09:46:16;;;;;;;5.30;2.10;;;;;;;25.86;56.61;99696.47;5095423;28;20396;-70
2023/08/04 09:48:46;;;;;;;4.53;1.98;;;;;;;25.87;56.32;99701.75;5095666;28;20285;-71
2023/08/04 09:51:19;;;;;;;5.30;2.13;;;;;;;25.88;56.68;99702.59;5095274;28;20489;-71
2023/08/04 09:53:47;;;;;;;;;;;;;;;25.90;57.12;99708.69;5095865;28;20550;-71
2023/08/04 09:56:18;;;;;;;3.63;1.90;;;;;;;25.88;56.46;99683.47;5095324;28;20003;-71
2023/08/04 09:58:47;;;;;;;4.32;2.10;;;;;;;25.92;56.65;99690.19;5095362;28;20055;-71
2023/08/04 10:01:18;;;;;;;4.15;1.80;;;;;;;25.92;56.60;99682.00;5095329;28;20481;-71
2023/08/04 10:03:50;;;;;;;4.35;2.08;;;;;;;25.93;56.29;99680.94;5095409;28;20055;-71
2023/08/04 10:06:20;;;;;;;3.78;1.98;;;;;;;25.94;56.47;99667.06;5095175;28;20119;-71
2023/08/04 10:08:50;;;;;;;4.53;2.13;;;;;;;25.95;56.52;99676.13;5094942;28;20564;-70
2023/08/04 10:11:18;;;;;;;3.20;1.98;;;;;;;25.96;56.31;99666.88;5094844;28;20048;-71
2023/08/04 10:13:49;;;;;;;5.25;2.00;;;;;;;25.96;56.69;99664.13;5095167;28;20139;-71
2023/08/04 10:16:21;;;;;;;3.45;1.92;;;;;;;25.98;56.63;99662.06;5095116;28;20048;-71
2023/08/04 10:18:51;;;;;;;3.05;1.73;;;;;;;26.00;56.74;99668.16;5095096;28;20408;-72
2023/08/04 10:21:22;;;;;;;3.95;1.98;;;;;;;25.98;56.77;99673.00;5094961;28;20545;-71
2023/08/04 10:23:53;;;;;;;4.28;1.95;;;;;;;26.04;56.65;99677.63;5094838;28;20425;-72
2023/08/04 10:26:21;;;;;;;3.10;1.60;;;;;;;26.05;56.34;99676.56;5095184;28;20044;-71
2023/08/04 10:29:06;;;;;;;2.78;1.70;;;;;;;26.09;56.18;99680.59;5094935;28;20044;-71
2023/08/04 10:31:47;;;;;;;4.03;1.85;;;;;;;26.10;56.08;99676.81;5094566;28;20068;-72
2023/08/04 10:34:20;;;;;;;3.65;2.00;;;;;;;26.12;56.49;99680.16;5094525;28;20051;-72
2023/08/04 10:37:14;;;;;;;3.78;1.80;;;;;;;26.16;56.25;99680.63;5094841;28;20444;-72
2023/08/04 10:39:44;;;;;;;3.38;1.95;;;;;;;26.18;56.38;99683.97;5092759;28;20048;-72
2023/08/04 10:42:21;;;;;;;3.13;1.80;;;;;;;26.20;56.04;99682.72;5094504;28;20082;-72
2023/08/04 10:44:54;;;;;;;4.03;1.77;;;;;;;26.23;56.21;99681.44;5094354;28;20408;-72
2023/08/04 10:47:40;;;;;;;3.08;1.67;;;;;;;26.25;55.99;99677.47;5094445;28;20052;-72
2023/08/04 10:50:28;;;;;;;5.53;2.00;;;;;;;26.27;56.29;99676.41;5094321;28;20051;-72
2023/08/04 10:52:57;;;;;;;4.00;1.80;;;;;;;26.32;55.95;99679.34;5093515;28;20040;-72
2023/08/04 10:55:26;;;;;;;4.22;1.90;;;;;;;26.33;55.92;99667.38;5094069;28;20056;-72
2023/08/04 10:57:54;;;;;;;3.53;1.98;;;;;;;26.37;55.81;99676.84;5094464;28;20450;-73
2023/08/04 11:00:23;;;;;;;3.63;1.80;;;;;;;26.40;56.16;99671.00;5094338;28;20048;-72
2023/08/04 11:02:52;;;;;;;3.95;1.88;;;;;;;26.42;56.14;99674.34;5094179;28;20078;-72
2023/08/04 11:05:23;;;;;;;3.83;1.80;;;;;;;26.44;56.05;99675.84;5093932;28;20052;-73
2023/08/04 11:07:52;;;;;;;3.97;1.90;;;;;;;26.49;56.06;99677.94;5093937;28;20051;-73
2023/08/04 11:10:21;;;;;;;4.57;2.08;;;;;;;26.50;56.03;99679.63;5094058;28;20054;-73
2023/08/04 11:12:53;;;;;;;3.30;1.90;;;;;;;26.51;55.62;99678.56;5093867;28;20052;-73
2023/08/04 11:15:22;;;;;;;4.20;1.75;;;;;;;26.51;56.07;99675.84;5093887;28;20075;-73
2023/08/04 11:17:50;;;;;;;3.78;2.00;;;;;;;26.54;55.55;99672.72;5093838;28;20051;-72
2023/08/04 11:20:20;;;;;;;3.25;2.00;;;;;;;26.58;55.93;99679.44;5093568;28;20139;-72
2023/08/04 11:23:00;;;;;;;3.65;1.80;;;;;;;26.61;55.46;99670.78;5093926;28;20067;-73
2023/08/04 11:25:33;;;;;;;2.83;1.70;;;;;;;26.66;55.94;99673.75;5093741;28;20131;-73
2023/08/04 11:28:02;;;;;;;3.58;1.75;;;;;;;26.69;55.49;99673.31;5093892;28;20072;-74
2023/08/04 11:30:33;;;;;;;3.65;1.85;;;;;;;26.73;55.95;99674.59;5093520;28;20040;-72
2023/08/04 11:33:01;;;;;;;3.47;1.50;;;;;;;26.73;55.93;99673.72;5093513;28;20048;-73
2023/08/04 11:35:32;;;;;;;4.68;1.80;;;;;;;26.73;55.58;99669.13;5093496;28;20043;-73
2023/08/04 11:38:04;;;;;;;3.55;1.70;;;;;;;26.73;55.67;99669.13;5093373;28;20044;-73
2023/08/04 11:40:35;;;;;;;3.13;1.88;;;;;;;26.80;55.70;99671.84;5093441;28;20044;-73
2023/08/04 11:43:03;;;;;;;4.43;1.95;;;;;;;26.85;55.49;99668.47;5093321;28;20048;-73
2023/08/04 11:45:32;;;;;;;3.72;2.00;;;;;;;26.88;55.56;99673.53;5093214;28;20473;-74